sensor_id;sensor_type;location;lat;lon;timestamp;pressure;altitude;pressure_sealevel;temperature;humidity
77118;BME280;66072;50.238;19.228;2024-01-15T00:00:44;96748.15;;;-0.44;83.89
77118;BME280;66072;50.238;19.228;2024-01-15T00:03:32;96740.40;;;-0.43;83.81
77118;BME280;66072;50.238;19.228;2024-01-15T00:06:00;96739.41;;;-0.43;83.74
77118;BME280;66072;50.238;19.228;2024-01-15T00:08:27;96738.36;;;-0.42;84.02
77118;BME280;66072;50.238;19.228;2024-01-15T00:10:55;96734.73;;;-0.44;83.94
77118;BME280;66072;50.238;19.228;2024-01-15T00:13:23;96738.45;;;-0.45;84.21
77118;BME280;66072;50.238;19.228;2024-01-15T00:15:50;96733.16;;;-0.47;84.19
77118;BME280;66072;50.238;19.228;2024-01-15T00:18:18;96728.48;;;-0.48;84.08
77118;BME280;66072;50.238;19.228;2024-01-15T00:20:46;96726.13;;;-0.48;84.17
77118;BME280;66072;50.238;19.228;2024-01-15T00:23:14;96718.59;;;-0.49;84.05
77118;BME280;66072;50.238;19.228;2024-01-15T00:25:41;96715.90;;;-0.49;84.32
77118;BME280;66072;50.238;19.228;2024-01-15T00:28:09;96704.52;;;-0.50;84.25
77118;BME280;66072;50.238;19.228;2024-01-15T00:30:37;96702.34;;;-0.50;84.28
77118;BME280;66072;50.238;19.228;2024-01-15T00:33:05;96694.96;;;-0.50;84.16
77118;BME280;66072;50.238;19.228;2024-01-15T00:35:32;96691.93;;;-0.50;83.83
77118;BME280;66072;50.238;19.228;2024-01-15T00:38:00;96694.27;;;-0.50;83.89
77118;BME280;66072;50.238;19.228;2024-01-15T00:40:28;96689.38;;;-0.49;84.15
77118;BME280;66072;50.238;19.228;2024-01-15T00:42:55;96688.61;;;-0.51;84.27
77118;BME280;66072;50.238;19.228;2024-01-15T00:45:23;96686.79;;;-0.52;84.12
77118;BME280;66072;50.238;19.228;2024-01-15T00:47:51;96685.92;;;-0.51;83.91
77118;BME280;66072;50.238;19.228;2024-01-15T00:50:19;96689.08;;;-0.50;83.70
77118;BME280;66072;50.238;19.228;2024-01-15T00:52:46;96692.06;;;-0.49;83.91
77118;BME280;66072;50.238;19.228;2024-01-15T00:55:14;96687.73;;;-0.50;83.93
77118;BME280;66072;50.238;19.228;2024-01-15T00:57:42;96684.27;;;-0.52;83.90
77118;BME280;66072;50.238;19.228;2024-01-15T01:00:10;96681.23;;;-0.51;83.63
77118;BME280;66072;50.238;19.228;2024-01-15T01:02:38;96676.89;;;-0.52;83.80
77118;BME280;66072;50.238;19.228;2024-01-15T01:05:05;96673.23;;;-0.53;83.94
77118;BME280;66072;50.238;19.228;2024-01-15T01:07:33;96672.90;;;-0.53;83.96
77118;BME280;66072;50.238;19.228;2024-01-15T01:10:01;96664.52;;;-0.55;84.31
77118;BME280;66072;50.238;19.228;2024-01-15T01:12:29;96663.20;;;-0.55;84.19
77118;BME280;66072;50.238;19.228;2024-01-15T01:14:56;96654.00;;;-0.56;84.33
77118;BME280;66072;50.238;19.228;2024-01-15T01:17:25;96643.34;;;-0.59;84.49
77118;BME280;66072;50.238;19.228;2024-01-15T01:19:52;96636.50;;;-0.60;84.42
77118;BME280;66072;50.238;19.228;2024-01-15T01:22:20;96632.98;;;-0.61;84.39
77118;BME280;66072;50.238;19.228;2024-01-15T01:24:48;96632.99;;;-0.61;84.60
77118;BME280;66072;50.238;19.228;2024-01-15T01:27:16;96629.69;;;-0.63;84.79
77118;BME280;66072;50.238;19.228;2024-01-15T01:29:43;96633.29;;;-0.65;84.69
77118;BME280;66072;50.238;19.228;2024-01-15T01:32:11;96629.23;;;-0.64;84.48
77118;BME280;66072;50.238;19.228;2024-01-15T01:34:42;96622.46;;;-0.63;84.84
77118;BME280;66072;50.238;19.228;2024-01-15T01:37:10;96615.34;;;-0.65;84.79
77118;BME280;66072;50.238;19.228;2024-01-15T01:39:39;96607.96;;;-0.65;84.89
77118;BME280;66072;50.238;19.228;2024-01-15T01:42:07;96608.16;;;-0.66;85.05
77118;BME280;66072;50.238;19.228;2024-01-15T01:44:35;96611.02;;;-0.66;84.58
77118;BME280;66072;50.238;19.228;2024-01-15T01:47:03;96606.54;;;-0.63;84.51
77118;BME280;66072;50.238;19.228;2024-01-15T01:49:31;96604.14;;;-0.62;84.52
77118;BME280;66072;50.238;19.228;2024-01-15T01:52:01;96604.31;;;-0.62;84.47
77118;BME280;66072;50.238;19.228;2024-01-15T01:54:32;96599.24;;;-0.61;83.94
77118;BME280;66072;50.238;19.228;2024-01-15T01:57:02;96596.52;;;-0.60;84.02
77118;BME280;66072;50.238;19.228;2024-01-15T01:59:33;96589.11;;;-0.59;84.30
77118;BME280;66072;50.238;19.228;2024-01-15T02:02:02;96581.59;;;-0.60;84.43
77118;BME280;66072;50.238;19.228;2024-01-15T02:04:31;96575.77;;;-0.62;84.52
77118;BME280;66072;50.238;19.228;2024-01-15T02:06:59;96577.80;;;-0.63;84.19
77118;BME280;66072;50.238;19.228;2024-01-15T02:09:27;96578.31;;;-0.62;84.05
77118;BME280;66072;50.238;19.228;2024-01-15T02:11:55;96574.43;;;-0.62;83.75
77118;BME280;66072;50.238;19.228;2024-01-15T02:14:23;96567.05;;;-0.62;83.02
77118;BME280;66072;50.238;19.228;2024-01-15T02:16:51;96567.50;;;-0.60;82.93
77118;BME280;66072;50.238;19.228;2024-01-15T02:19:19;96573.69;;;-0.59;82.53
77118;BME280;66072;50.238;19.228;2024-01-15T02:21:47;96570.92;;;-0.58;82.09
77118;BME280;66072;50.238;19.228;2024-01-15T02:24:14;96568.89;;;-0.57;81.85
77118;BME280;66072;50.238;19.228;2024-01-15T02:26:42;96567.71;;;-0.57;81.22
77118;BME280;66072;50.238;19.228;2024-01-15T02:29:11;96565.15;;;-0.55;80.71
77118;BME280;66072;50.238;19.228;2024-01-15T02:31:38;96565.48;;;-0.55;80.96
77118;BME280;66072;50.238;19.228;2024-01-15T02:34:07;96551.07;;;-0.56;80.64
77118;BME280;66072;50.238;19.228;2024-01-15T02:36:35;96541.33;;;-0.56;80.64
77118;BME280;66072;50.238;19.228;2024-01-15T02:39:02;96543.77;;;-0.59;80.46
77118;BME280;66072;50.238;19.228;2024-01-15T02:41:30;96542.47;;;-0.60;80.31
77118;BME280;66072;50.238;19.228;2024-01-15T02:43:58;96541.50;;;-0.61;80.35
77118;BME280;66072;50.238;19.228;2024-01-15T02:46:25;96532.63;;;-0.62;80.29
77118;BME280;66072;50.238;19.228;2024-01-15T02:48:53;96534.73;;;-0.64;80.21
77118;BME280;66072;50.238;19.228;2024-01-15T02:51:21;96530.77;;;-0.66;80.11
77118;BME280;66072;50.238;19.228;2024-01-15T02:53:50;96525.77;;;-0.68;79.94
77118;BME280;66072;50.238;19.228;2024-01-15T02:56:17;96523.73;;;-0.67;79.92
77118;BME280;66072;50.238;19.228;2024-01-15T02:58:45;96522.90;;;-0.67;80.10
77118;BME280;66072;50.238;19.228;2024-01-15T03:01:13;96514.56;;;-0.69;79.82
77118;BME280;66072;50.238;19.228;2024-01-15T03:03:40;96503.46;;;-0.68;79.90
77118;BME280;66072;50.238;19.228;2024-01-15T03:06:09;96500.00;;;-0.70;79.62
77118;BME280;66072;50.238;19.228;2024-01-15T03:08:37;96495.14;;;-0.70;79.30
77118;BME280;66072;50.238;19.228;2024-01-15T03:11:05;96493.76;;;-0.69;79.35
77118;BME280;66072;50.238;19.228;2024-01-15T03:13:36;96491.04;;;-0.68;78.84
77118;BME280;66072;50.238;19.228;2024-01-15T03:16:05;96482.38;;;-0.65;78.78
77118;BME280;66072;50.238;19.228;2024-01-15T03:18:33;96478.56;;;-0.66;78.76
77118;BME280;66072;50.238;19.228;2024-01-15T03:21:01;96471.02;;;-0.66;78.68
77118;BME280;66072;50.238;19.228;2024-01-15T03:23:28;96467.19;;;-0.63;78.46
77118;BME280;66072;50.238;19.228;2024-01-15T03:25:56;96467.86;;;-0.63;78.81
77118;BME280;66072;50.238;19.228;2024-01-15T03:28:24;96467.34;;;-0.62;78.44
77118;BME280;66072;50.238;19.228;2024-01-15T03:30:51;96469.59;;;-0.59;78.00
77118;BME280;66072;50.238;19.228;2024-01-15T03:33:19;96473.41;;;-0.58;78.24
77118;BME280;66072;50.238;19.228;2024-01-15T03:35:47;96472.91;;;-0.58;78.18
77118;BME280;66072;50.238;19.228;2024-01-15T03:38:15;96467.02;;;-0.58;77.99
77118;BME280;66072;50.238;19.228;2024-01-15T03:40:43;96465.99;;;-0.57;77.66
77118;BME280;66072;50.238;19.228;2024-01-15T03:43:10;96465.12;;;-0.57;77.58
77118;BME280;66072;50.238;19.228;2024-01-15T03:45:38;96459.59;;;-0.57;77.63
77118;BME280;66072;50.238;19.228;2024-01-15T03:48:06;96453.70;;;-0.56;77.55
77118;BME280;66072;50.238;19.228;2024-01-15T03:50:34;96449.39;;;-0.58;77.51
77118;BME280;66072;50.238;19.228;2024-01-15T03:53:01;96440.15;;;-0.57;77.21
77118;BME280;66072;50.238;19.228;2024-01-15T03:55:29;96435.44;;;-0.57;77.26
77118;BME280;66072;50.238;19.228;2024-01-15T03:57:57;96432.29;;;-0.58;77.40
77118;BME280;66072;50.238;19.228;2024-01-15T04:00:25;96435.55;;;-0.60;77.42
77118;BME280;66072;50.238;19.228;2024-01-15T04:02:52;96444.16;;;-0.62;77.73
77118;BME280;66072;50.238;19.228;2024-01-15T04:05:20;96434.54;;;-0.65;77.70
77118;BME280;66072;50.238;19.228;2024-01-15T04:07:48;96429.58;;;-0.67;77.96
77118;BME280;66072;50.238;19.228;2024-01-15T04:10:15;96428.16;;;-0.70;78.01
77118;BME280;66072;50.238;19.228;2024-01-15T04:12:43;96435.74;;;-0.71;78.12
77118;BME280;66072;50.238;19.228;2024-01-15T04:15:11;96433.85;;;-0.74;78.39
77118;BME280;66072;50.238;19.228;2024-01-15T04:17:38;96431.25;;;-0.76;78.70
77118;BME280;66072;50.238;19.228;2024-01-15T04:20:07;96431.65;;;-0.78;78.81
77118;BME280;66072;50.238;19.228;2024-01-15T04:22:35;96433.55;;;-0.80;78.78
77118;BME280;66072;50.238;19.228;2024-01-15T04:25:03;96436.41;;;-0.80;78.85
77118;BME280;66072;50.238;19.228;2024-01-15T04:27:31;96435.41;;;-0.80;78.86
77118;BME280;66072;50.238;19.228;2024-01-15T04:29:59;96433.08;;;-0.81;78.98
77118;BME280;66072;50.238;19.228;2024-01-15T04:32:26;96439.52;;;-0.83;78.87
77118;BME280;66072;50.238;19.228;2024-01-15T04:34:54;96437.62;;;-0.82;78.86
77118;BME280;66072;50.238;19.228;2024-01-15T04:37:22;96434.23;;;-0.81;78.58
77118;BME280;66072;50.238;19.228;2024-01-15T04:39:50;96435.89;;;-0.79;78.44
77118;BME280;66072;50.238;19.228;2024-01-15T04:42:18;96430.42;;;-0.77;78.59
77118;BME280;66072;50.238;19.228;2024-01-15T04:44:46;96426.49;;;-0.75;78.56
77118;BME280;66072;50.238;19.228;2024-01-15T04:47:14;96425.01;;;-0.75;78.63
77118;BME280;66072;50.238;19.228;2024-01-15T04:49:41;96421.99;;;-0.76;78.43
77118;BME280;66072;50.238;19.228;2024-01-15T04:52:09;96421.80;;;-0.75;78.46
77118;BME280;66072;50.238;19.228;2024-01-15T04:54:37;96415.41;;;-0.75;78.28
77118;BME280;66072;50.238;19.228;2024-01-15T04:57:04;96416.70;;;-0.73;78.43
77118;BME280;66072;50.238;19.228;2024-01-15T04:59:32;96419.23;;;-0.74;78.60
77118;BME280;66072;50.238;19.228;2024-01-15T05:02:00;96424.98;;;-0.75;78.57
77118;BME280;66072;50.238;19.228;2024-01-15T05:04:27;96426.55;;;-0.77;78.66
77118;BME280;66072;50.238;19.228;2024-01-15T05:06:55;96434.02;;;-0.74;78.41
77118;BME280;66072;50.238;19.228;2024-01-15T05:09:23;96439.98;;;-0.71;78.58
77118;BME280;66072;50.238;19.228;2024-01-15T05:11:51;96434.51;;;-0.73;78.82
77118;BME280;66072;50.238;19.228;2024-01-15T05:14:19;96422.33;;;-0.76;78.76
77118;BME280;66072;50.238;19.228;2024-01-15T05:16:47;96427.04;;;-0.76;78.85
77118;BME280;66072;50.238;19.228;2024-01-15T05:19:15;96423.11;;;-0.78;78.87
77118;BME280;66072;50.238;19.228;2024-01-15T05:21:43;96415.04;;;-0.78;78.92
77118;BME280;66072;50.238;19.228;2024-01-15T05:24:11;96411.88;;;-0.79;79.20
77118;BME280;66072;50.238;19.228;2024-01-15T05:26:38;96407.39;;;-0.81;79.26
77118;BME280;66072;50.238;19.228;2024-01-15T05:29:06;96410.77;;;-0.81;79.29
77118;BME280;66072;50.238;19.228;2024-01-15T05:31:35;96409.30;;;-0.82;79.28
77118;BME280;66072;50.238;19.228;2024-01-15T05:34:03;96401.02;;;-0.81;79.19
77118;BME280;66072;50.238;19.228;2024-01-15T05:36:31;96392.59;;;-0.79;79.14
77118;BME280;66072;50.238;19.228;2024-01-15T05:38:59;96394.77;;;-0.79;79.28
77118;BME280;66072;50.238;19.228;2024-01-15T05:41:27;96399.81;;;-0.80;79.37
77118;BME280;66072;50.238;19.228;2024-01-15T05:43:55;96398.02;;;-0.82;79.27
77118;BME280;66072;50.238;19.228;2024-01-15T05:46:22;96400.52;;;-0.81;79.18
77118;BME280;66072;50.238;19.228;2024-01-15T05:48:50;96398.64;;;-0.80;79.07
77118;BME280;66072;50.238;19.228;2024-01-15T05:51:18;96397.92;;;-0.78;79.30
77118;BME280;66072;50.238;19.228;2024-01-15T05:53:46;96402.50;;;-0.80;79.28
77118;BME280;66072;50.238;19.228;2024-01-15T05:56:16;96397.70;;;-0.82;79.39
77118;BME280;66072;50.238;19.228;2024-01-15T05:58:44;96396.90;;;-0.83;79.59
77118;BME280;66072;50.238;19.228;2024-01-15T06:01:11;96400.14;;;-0.84;79.63
77118;BME280;66072;50.238;19.228;2024-01-15T06:03:39;96410.33;;;-0.83;79.49
77118;BME280;66072;50.238;19.228;2024-01-15T06:06:08;96410.20;;;-0.84;79.72
77118;BME280;66072;50.238;19.228;2024-01-15T06:08:37;96414.11;;;-0.85;79.52
77118;BME280;66072;50.238;19.228;2024-01-15T06:11:06;96411.32;;;-0.83;79.50
77118;BME280;66072;50.238;19.228;2024-01-15T06:13:34;96413.48;;;-0.82;79.53
77118;BME280;66072;50.238;19.228;2024-01-15T06:16:01;96412.50;;;-0.83;79.61
77118;BME280;66072;50.238;19.228;2024-01-15T06:18:30;96411.85;;;-0.83;79.96
77118;BME280;66072;50.238;19.228;2024-01-15T06:20:59;96407.25;;;-0.86;80.10
77118;BME280;66072;50.238;19.228;2024-01-15T06:23:26;96403.63;;;-0.88;80.08
77118;BME280;66072;50.238;19.228;2024-01-15T06:25:54;96400.81;;;-0.89;79.56
77118;BME280;66072;50.238;19.228;2024-01-15T06:28:22;96405.46;;;-0.88;79.59
77118;BME280;66072;50.238;19.228;2024-01-15T06:30:49;96403.92;;;-0.87;79.69
77118;BME280;66072;50.238;19.228;2024-01-15T06:33:17;96403.30;;;-0.88;79.46
77118;BME280;66072;50.238;19.228;2024-01-15T06:35:45;96401.91;;;-0.88;79.31
77118;BME280;66072;50.238;19.228;2024-01-15T06:38:13;96403.25;;;-0.87;79.27
77118;BME280;66072;50.238;19.228;2024-01-15T06:40:40;96412.13;;;-0.87;79.24
77118;BME280;66072;50.238;19.228;2024-01-15T06:43:08;96415.18;;;-0.88;79.49
77118;BME280;66072;50.238;19.228;2024-01-15T06:45:36;96415.73;;;-0.89;79.43
77118;BME280;66072;50.238;19.228;2024-01-15T06:48:05;96418.58;;;-0.89;79.22
77118;BME280;66072;50.238;19.228;2024-01-15T06:50:33;96415.02;;;-0.88;78.95
77118;BME280;66072;50.238;19.228;2024-01-15T06:53:00;96426.04;;;-0.86;79.06
77118;BME280;66072;50.238;19.228;2024-01-15T06:55:28;96429.23;;;-0.86;79.23
77118;BME280;66072;50.238;19.228;2024-01-15T06:57:56;96437.15;;;-0.87;79.13
77118;BME280;66072;50.238;19.228;2024-01-15T07:00:24;96435.14;;;-0.87;79.18
77118;BME280;66072;50.238;19.228;2024-01-15T07:02:51;96435.42;;;-0.85;79.06
77118;BME280;66072;50.238;19.228;2024-01-15T07:05:20;96441.77;;;-0.85;79.07
77118;BME280;66072;50.238;19.228;2024-01-15T07:07:48;96444.55;;;-0.83;79.20
77118;BME280;66072;50.238;19.228;2024-01-15T07:10:16;96444.04;;;-0.82;79.13
77118;BME280;66072;50.238;19.228;2024-01-15T07:12:44;96444.29;;;-0.79;78.84
77118;BME280;66072;50.238;19.228;2024-01-15T07:15:12;96446.54;;;-0.77;79.00
77118;BME280;66072;50.238;19.228;2024-01-15T07:17:40;96446.15;;;-0.76;78.57
77118;BME280;66072;50.238;19.228;2024-01-15T07:20:09;96453.94;;;-0.72;78.78
77118;BME280;66072;50.238;19.228;2024-01-15T07:22:37;96460.73;;;-0.70;78.71
77118;BME280;66072;50.238;19.228;2024-01-15T07:25:05;96459.46;;;-0.67;78.34
77118;BME280;66072;50.238;19.228;2024-01-15T07:27:33;96463.70;;;-0.64;78.24
77118;BME280;66072;50.238;19.228;2024-01-15T07:30:00;96470.13;;;-0.60;77.99
77118;BME280;66072;50.238;19.228;2024-01-15T07:32:30;96471.95;;;-0.59;78.06
77118;BME280;66072;50.238;19.228;2024-01-15T07:34:57;96472.06;;;-0.58;77.71
77118;BME280;66072;50.238;19.228;2024-01-15T07:37:25;96475.04;;;-0.57;77.73
77118;BME280;66072;50.238;19.228;2024-01-15T07:39:53;96475.50;;;-0.56;77.56
77118;BME280;66072;50.238;19.228;2024-01-15T07:42:20;96478.81;;;-0.54;77.59
77118;BME280;66072;50.238;19.228;2024-01-15T07:44:48;96479.52;;;-0.54;77.22
77118;BME280;66072;50.238;19.228;2024-01-15T07:47:16;96483.15;;;-0.53;77.02
77118;BME280;66072;50.238;19.228;2024-01-15T07:49:43;96478.06;;;-0.52;76.96
77118;BME280;66072;50.238;19.228;2024-01-15T07:52:11;96481.97;;;-0.48;77.03
77118;BME280;66072;50.238;19.228;2024-01-15T07:54:39;96481.44;;;-0.42;76.80
77118;BME280;66072;50.238;19.228;2024-01-15T07:57:07;96472.10;;;-0.35;76.41
77118;BME280;66072;50.238;19.228;2024-01-15T07:59:35;96473.57;;;-0.29;76.22
77118;BME280;66072;50.238;19.228;2024-01-15T08:02:03;96479.64;;;-0.25;75.90
77118;BME280;66072;50.238;19.228;2024-01-15T08:04:31;96483.16;;;-0.24;75.56
77118;BME280;66072;50.238;19.228;2024-01-15T08:06:58;96486.54;;;-0.25;76.14
77118;BME280;66072;50.238;19.228;2024-01-15T08:09:26;96484.06;;;-0.27;76.45
77118;BME280;66072;50.238;19.228;2024-01-15T08:11:54;96484.92;;;-0.32;75.44
77118;BME280;66072;50.238;19.228;2024-01-15T08:14:22;96485.54;;;-0.39;75.81
77118;BME280;66072;50.238;19.228;2024-01-15T08:16:49;96491.34;;;-0.47;75.99
77118;BME280;66072;50.238;19.228;2024-01-15T08:19:17;96494.32;;;-0.46;76.25
77118;BME280;66072;50.238;19.228;2024-01-15T08:21:45;96504.05;;;-0.41;76.07
77118;BME280;66072;50.238;19.228;2024-01-15T08:24:14;96496.84;;;-0.36;76.08
77118;BME280;66072;50.238;19.228;2024-01-15T08:26:42;96502.83;;;-0.35;76.30
77118;BME280;66072;50.238;19.228;2024-01-15T08:29:10;96504.23;;;-0.36;76.05
77118;BME280;66072;50.238;19.228;2024-01-15T08:31:38;96496.64;;;-0.31;76.03
77118;BME280;66072;50.238;19.228;2024-01-15T08:34:06;96498.75;;;-0.24;75.69
77118;BME280;66072;50.238;19.228;2024-01-15T08:36:33;96503.92;;;-0.09;75.64
77118;BME280;66072;50.238;19.228;2024-01-15T08:39:01;96500.55;;;0.11;75.09
77118;BME280;66072;50.238;19.228;2024-01-15T08:41:31;96498.53;;;0.33;74.89
77118;BME280;66072;50.238;19.228;2024-01-15T08:43:59;96502.40;;;0.55;73.82
77118;BME280;66072;50.238;19.228;2024-01-15T08:46:27;96507.30;;;0.67;74.09
77118;BME280;66072;50.238;19.228;2024-01-15T08:48:54;96508.73;;;0.74;75.82
77118;BME280;66072;50.238;19.228;2024-01-15T08:51:22;96511.57;;;0.70;77.65
77118;BME280;66072;50.238;19.228;2024-01-15T08:53:50;96513.23;;;0.66;78.83
77118;BME280;66072;50.238;19.228;2024-01-15T08:56:18;96512.15;;;0.64;78.87
77118;BME280;66072;50.238;19.228;2024-01-15T08:58:46;96512.80;;;0.64;78.48
77118;BME280;66072;50.238;19.228;2024-01-15T09:01:13;96515.06;;;0.71;77.65
77118;BME280;66072;50.238;19.228;2024-01-15T09:03:41;96519.59;;;0.84;76.26
77118;BME280;66072;50.238;19.228;2024-01-15T09:06:10;96520.65;;;1.04;75.41
77118;BME280;66072;50.238;19.228;2024-01-15T09:08:37;96520.48;;;1.17;74.73
77118;BME280;66072;50.238;19.228;2024-01-15T09:11:05;96526.73;;;1.24;74.59
77118;BME280;66072;50.238;19.228;2024-01-15T09:13:33;96528.70;;;1.38;74.85
77118;BME280;66072;50.238;19.228;2024-01-15T09:16:00;96536.54;;;1.48;73.87
77118;BME280;66072;50.238;19.228;2024-01-15T09:18:28;96532.43;;;1.38;73.63
77118;BME280;66072;50.238;19.228;2024-01-15T09:20:56;96529.44;;;1.20;74.32
77118;BME280;66072;50.238;19.228;2024-01-15T09:23:24;96527.40;;;1.00;74.39
77118;BME280;66072;50.238;19.228;2024-01-15T09:25:54;96528.31;;;0.81;74.61
77118;BME280;66072;50.238;19.228;2024-01-15T09:28:22;96532.70;;;0.68;74.80
77118;BME280;66072;50.238;19.228;2024-01-15T09:30:49;96535.79;;;0.62;75.16
77118;BME280;66072;50.238;19.228;2024-01-15T09:33:17;96534.98;;;0.61;74.93
77118;BME280;66072;50.238;19.228;2024-01-15T09:35:45;96535.26;;;0.58;74.66
77118;BME280;66072;50.238;19.228;2024-01-15T09:38:13;96534.55;;;0.55;74.89
77118;BME280;66072;50.238;19.228;2024-01-15T09:40:43;96536.41;;;0.54;74.68
77118;BME280;66072;50.238;19.228;2024-01-15T09:43:11;96527.48;;;0.50;74.21
77118;BME280;66072;50.238;19.228;2024-01-15T09:45:39;96527.45;;;0.60;74.34
77118;BME280;66072;50.238;19.228;2024-01-15T09:48:07;96522.42;;;0.68;73.84
77118;BME280;66072;50.238;19.228;2024-01-15T09:50:35;96516.69;;;0.68;72.68
77118;BME280;66072;50.238;19.228;2024-01-15T09:53:05;96513.55;;;0.67;72.37
77118;BME280;66072;50.238;19.228;2024-01-15T09:55:33;96514.01;;;0.68;71.93
77118;BME280;66072;50.238;19.228;2024-01-15T09:58:00;96511.75;;;0.83;72.00
77118;BME280;66072;50.238;19.228;2024-01-15T10:00:29;96506.73;;;1.03;70.97
77118;BME280;66072;50.238;19.228;2024-01-15T10:02:57;96508.76;;;1.16;69.85
77118;BME280;66072;50.238;19.228;2024-01-15T10:05:25;96504.45;;;1.26;69.62
77118;BME280;66072;50.238;19.228;2024-01-15T10:07:53;96502.95;;;1.26;69.57
77118;BME280;66072;50.238;19.228;2024-01-15T10:10:22;96508.04;;;1.21;68.47
77118;BME280;66072;50.238;19.228;2024-01-15T10:12:49;96509.61;;;1.27;68.33
77118;BME280;66072;50.238;19.228;2024-01-15T10:15:17;96502.73;;;1.35;68.18
77118;BME280;66072;50.238;19.228;2024-01-15T10:17:45;96502.77;;;1.50;68.21
77118;BME280;66072;50.238;19.228;2024-01-15T10:20:13;96507.23;;;1.64;66.82
77118;BME280;66072;50.238;19.228;2024-01-15T10:22:41;96504.92;;;1.79;66.38
77118;BME280;66072;50.238;19.228;2024-01-15T10:25:10;96506.42;;;1.98;66.26
77118;BME280;66072;50.238;19.228;2024-01-15T10:27:38;96499.15;;;2.22;65.52
77118;BME280;66072;50.238;19.228;2024-01-15T10:30:07;96496.35;;;2.39;64.69
77118;BME280;66072;50.238;19.228;2024-01-15T10:32:35;96497.36;;;2.39;63.43
77118;BME280;66072;50.238;19.228;2024-01-15T10:35:03;96489.76;;;2.35;63.06
77118;BME280;66072;50.238;19.228;2024-01-15T10:37:34;96500.23;;;2.46;63.49
77118;BME280;66072;50.238;19.228;2024-01-15T10:40:02;96493.80;;;2.72;62.49
77118;BME280;66072;50.238;19.228;2024-01-15T10:42:30;96492.12;;;3.00;61.51
77118;BME280;66072;50.238;19.228;2024-01-15T10:44:58;96497.92;;;3.13;61.23
77118;BME280;66072;50.238;19.228;2024-01-15T10:47:26;96500.36;;;3.05;60.66
77118;BME280;66072;50.238;19.228;2024-01-15T10:49:54;96507.77;;;3.12;60.96
77118;BME280;66072;50.238;19.228;2024-01-15T10:52:22;96501.47;;;3.06;60.59
77118;BME280;66072;50.238;19.228;2024-01-15T10:54:50;96498.08;;;3.20;60.97
77118;BME280;66072;50.238;19.228;2024-01-15T10:57:21;96491.45;;;3.17;60.12
77118;BME280;66072;50.238;19.228;2024-01-15T10:59:49;96491.13;;;3.10;60.33
77118;BME280;66072;50.238;19.228;2024-01-15T11:02:17;96487.61;;;3.03;60.59
77118;BME280;66072;50.238;19.228;2024-01-15T11:04:45;96489.97;;;3.03;61.00
77118;BME280;66072;50.238;19.228;2024-01-15T11:07:14;96489.61;;;2.96;60.61
77118;BME280;66072;50.238;19.228;2024-01-15T11:09:42;96486.69;;;2.83;61.30
77118;BME280;66072;50.238;19.228;2024-01-15T11:12:11;96493.95;;;2.69;61.81
77118;BME280;66072;50.238;19.228;2024-01-15T11:14:46;96493.17;;;2.45;62.10
77118;BME280;66072;50.238;19.228;2024-01-15T11:17:15;96488.48;;;2.30;62.65
77118;BME280;66072;50.238;19.228;2024-01-15T11:25:03;96485.55;;;1.98;63.98
77118;BME280;66072;50.238;19.228;2024-01-15T11:27:41;96479.70;;;1.85;64.11
77118;BME280;66072;50.238;19.228;2024-01-15T11:30:11;96477.20;;;1.77;63.87
77118;BME280;66072;50.238;19.228;2024-01-15T11:32:40;96480.21;;;1.70;63.82
77118;BME280;66072;50.238;19.228;2024-01-15T11:35:09;96483.87;;;1.67;64.29
77118;BME280;66072;50.238;19.228;2024-01-15T11:40:22;96487.11;;;1.62;64.31
77118;BME280;66072;50.238;19.228;2024-01-15T11:42:50;96483.04;;;1.51;64.17
77118;BME280;66072;50.238;19.228;2024-01-15T11:45:21;96487.27;;;1.46;64.42
77118;BME280;66072;50.238;19.228;2024-01-15T11:48:11;96484.95;;;1.49;65.21
77118;BME280;66072;50.238;19.228;2024-01-15T11:50:48;96481.37;;;1.50;65.05
77118;BME280;66072;50.238;19.228;2024-01-15T11:55:51;96476.89;;;1.41;65.37
77118;BME280;66072;50.238;19.228;2024-01-15T11:58:19;96484.54;;;1.36;65.83
77118;BME280;66072;50.238;19.228;2024-01-15T12:00:48;96478.46;;;1.23;65.96
77118;BME280;66072;50.238;19.228;2024-01-15T12:03:16;96483.27;;;1.13;66.28
77118;BME280;66072;50.238;19.228;2024-01-15T12:05:44;96477.77;;;1.11;66.60
77118;BME280;66072;50.238;19.228;2024-01-15T12:08:12;96473.55;;;1.08;66.97
77118;BME280;66072;50.238;19.228;2024-01-15T12:10:41;96473.64;;;0.93;66.97
77118;BME280;66072;50.238;19.228;2024-01-15T12:13:14;96470.95;;;0.85;67.85
77118;BME280;66072;50.238;19.228;2024-01-15T12:15:42;96467.80;;;0.79;68.11
77118;BME280;66072;50.238;19.228;2024-01-15T12:18:15;96468.67;;;0.70;68.17
77118;BME280;66072;50.238;19.228;2024-01-15T12:20:44;96469.58;;;0.64;68.63
77118;BME280;66072;50.238;19.228;2024-01-15T12:23:12;96474.46;;;0.51;68.64
77118;BME280;66072;50.238;19.228;2024-01-15T12:25:40;96476.92;;;0.44;69.18
77118;BME280;66072;50.238;19.228;2024-01-15T12:28:08;96473.29;;;0.38;69.47
77118;BME280;66072;50.238;19.228;2024-01-15T12:30:36;96473.70;;;0.36;69.66
77118;BME280;66072;50.238;19.228;2024-01-15T12:33:04;96474.33;;;0.33;70.10
77118;BME280;66072;50.238;19.228;2024-01-15T12:35:34;96476.62;;;0.30;70.09
77118;BME280;66072;50.238;19.228;2024-01-15T12:38:02;96465.20;;;0.30;69.95
77118;BME280;66072;50.238;19.228;2024-01-15T12:40:31;96474.23;;;0.31;70.18
77118;BME280;66072;50.238;19.228;2024-01-15T12:43:00;96469.39;;;0.34;70.33
77118;BME280;66072;50.238;19.228;2024-01-15T12:45:28;96472.09;;;0.39;70.09
77118;BME280;66072;50.238;19.228;2024-01-15T12:47:55;96473.64;;;0.38;69.86
77118;BME280;66072;50.238;19.228;2024-01-15T12:50:24;96476.30;;;0.38;69.97
77118;BME280;66072;50.238;19.228;2024-01-15T12:52:52;96476.14;;;0.39;70.07
77118;BME280;66072;50.238;19.228;2024-01-15T12:55:20;96476.55;;;0.40;69.98
77118;BME280;66072;50.238;19.228;2024-01-15T12:57:48;96480.41;;;0.41;69.84
77118;BME280;66072;50.238;19.228;2024-01-15T13:00:15;96485.30;;;0.45;69.87
77118;BME280;66072;50.238;19.228;2024-01-15T13:02:43;96487.05;;;0.47;69.84
77118;BME280;66072;50.238;19.228;2024-01-15T13:05:12;96483.68;;;0.47;70.06
77118;BME280;66072;50.238;19.228;2024-01-15T13:07:42;96481.70;;;0.46;69.96